Naugatuck, CT

11:21 PM EDT on October 22, 2014 (GMT -0400)
Wooster Street | Change Station
CLOSE
Current Station
Personal Weather Station
Location: Naugatuck, CT
Elevation: 623 ft
Nearby Weather Stations

Elev 623 ft 41.50 °N, 73.03 °W | Updated 31 seconds ago

Mostly Cloudy
Mostly Cloudy
46.5 °F
Feels Like 44 °F
N
6.0
Wind Variable Wind from ENE
Gusts 12.0 mph

Today
High -- | Low -- °F
--% Chance of Precip.
Yesterday
High -- | Low -- °F
Precip. -- in
7:12 AM 6:00 PM
Waning Crescent, 1% visible
Pressure 29.74 in
Visibility 10.0 miles
Clouds Overcast 1900 ft
Windchill 44 °F
Dew Point 46 °F
Humidity 97%
Rainfall 0.51 in
Snow Depth Not available.
UV 0 out of 12
Pollen .10 out of 12
Ozone Good
PM2.5 Good
Flu Activity Sporadic
METAR KOXC 230315Z 03023G31KT 10SM OVC019 09/05 A2974 RMK AO1 P0001

More Conditions Fewer Conditions

Pressure 29.74 in
Visibility 10.0 miles
Clouds Overcast 1900 ft
Windchill 44 °F
Dew Point 46 °F
Humidity 97%
Rainfall 0.51 in
Snow Depth Not available.
UV 0 out of 12
Pollen .10 out of 12
Ozone Good
PM2.5 Good
Flu Activity Sporadic
METAR KOXC 230315Z 03023G31KT 10SM OVC019 09/05 A2974 RMK AO1 P0001

More Conditions Fewer Conditions

10-Day Weather Forecast

Almanac

Astronomy

Oct. 22, 2014 Rise Set
Actual Time 7:12 AM EDT 6:00 PM EDT
Civil Twilight 6:43 AM EDT 6:28 PM EDT
Nautical Twilight 6:11 AM EDT 7:01 PM EDT
Astronomical Twilight 5:39 AM EDT 7:33 PM EDT
Moon 5:49 AM EDT (10/22) 5:26 PM EDT (10/22)
Length of Visible Light 11h 44m
Length of Day
10h 48m
Tomorrow will be 2m 36s shorter.
Waning Crescent, 1% of the Moon is Illuminated
Today
Waning Crescent
Oct 23
New
Oct 30
First Quarter
Nov 6
Full
Nov 14
Last Quarter

Today's Extremes

State Highs State Lows

Community

WunderPhotos

Upload Photos

1,764,128 photos uploaded!

Nearby

Air Quality

  Air Quality AQ Index Pollutant
Yesterday Good
PM10
Yesterday Good
OZONE
Current Good
OZONE
Current Good
PM2.5
Wednesday Good
PM2.5
Thursday Good
PM2.5

Snow Depth

Station Depth Elevation
No new snow has been reported.

Earthquake Activity

City Distance Mag. Time & Date
No recent earthquake activity has been reported nearby.
Minimum magnitude displayed is 2.5.

Coastal Water Temperatures

Place Temperature
Bridgeport, CT 62.1 °F

Nearby Weather Stations